Valdosta/Moody AFB, Georgia
Current Conditions -  °F | °C
As of 6:58 PM on Saturday 25 Oct 2014 (Local Time) from KVAD Reporting Station
Clear Clear  
Wind Chill: 69°   Ceiling: Unl
Heat Index: 69°   Visibility: 10mi
Dew Point: 45°   Wind: 5mph
Humidity: 41%   Direction: 300°WNW
Pressure: 29.98"   Gusts: NA
Location:  30.96°N, 83.2°W
Report Text: KVAD 252258Z AUTO 30004KT 10SM CLR 21/07 A2998 RMK AO2 SLP154 T02060070 $
Loading
Personal Weather Stations






























Interactive Weather Map
Tropical Storm Tracking
New forecast layout! Learn more

10-Day Weather Forecast

Advertisements
Track Severe Weather on mobile